createdAt,value
2023-02-28T00:01:32.627Z,1023.31
2023-02-28T00:03:32.420Z,1023.31
2023-02-28T00:05:32.371Z,1023.29
2023-02-28T00:07:32.450Z,1023.29
2023-02-28T00:09:32.456Z,1023.29
2023-02-28T00:11:32.536Z,1023.29
2023-02-28T00:13:32.411Z,1023.29
2023-02-28T00:15:32.407Z,1023.29
2023-02-28T00:17:32.367Z,1023.29
2023-02-28T00:19:32.380Z,1023.29
2023-02-28T00:21:32.551Z,1023.29
2023-02-28T00:23:32.364Z,1023.29
2023-02-28T00:25:32.462Z,1023.18
2023-02-28T00:27:32.337Z,1023.18
2023-02-28T00:29:32.589Z,1023.18
2023-02-28T00:31:32.348Z,1023.18
2023-02-28T00:33:32.435Z,1023.18
2023-02-28T00:35:32.360Z,1023.18
2023-02-28T00:37:32.394Z,1023.18
2023-02-28T00:39:32.460Z,1023.18
2023-02-28T00:41:32.420Z,1023.18
2023-02-28T00:43:32.432Z,1023.18
2023-02-28T00:45:32.384Z,1023.18
2023-02-28T00:47:32.358Z,1023.18
2023-02-28T00:49:32.440Z,1023.18
2023-02-28T00:51:32.492Z,1023.18
2023-02-28T00:53:32.416Z,1023.18
2023-02-28T00:55:32.418Z,1023.18
2023-02-28T00:58:02.495Z,1023.18
2023-02-28T01:00:02.523Z,1023.18
2023-02-28T01:02:04.930Z,1023.18
2023-02-28T01:04:02.389Z,1023.18
2023-02-28T01:06:02.422Z,1023.18
2023-02-28T01:08:02.477Z,1023.18
2023-02-28T01:10:02.353Z,1023.18
2023-02-28T01:12:02.425Z,1023.18
2023-02-28T01:14:02.361Z,1023.18
2023-02-28T01:16:02.405Z,1023.18
2023-02-28T01:18:02.370Z,1023.18
2023-02-28T01:20:02.350Z,1023.18
2023-02-28T01:22:02.385Z,1023.18
2023-02-28T01:24:02.379Z,1023.18
2023-02-28T01:26:02.401Z,1023.18
2023-02-28T01:28:02.454Z,1023.18
2023-02-28T01:30:02.384Z,1023.18
2023-02-28T01:32:02.494Z,1023.18
2023-02-28T01:34:02.368Z,1023.18
2023-02-28T01:36:02.473Z,1023.18
2023-02-28T01:38:15.681Z,1023.18
2023-02-28T01:40:02.437Z,1023.18
2023-02-28T01:42:02.397Z,1023.18
2023-02-28T01:44:02.354Z,1023.18
2023-02-28T01:46:02.436Z,1023.18
2023-02-28T01:48:02.473Z,1023.18
2023-02-28T01:50:02.395Z,1023.00
2023-02-28T01:52:02.407Z,1023.00
2023-02-28T01:54:02.621Z,1023.00
2023-02-28T01:56:02.375Z,1023.00
2023-02-28T01:58:02.381Z,1023.00
2023-02-28T02:00:02.420Z,1023.00
2023-02-28T02:02:02.470Z,1023.00
2023-02-28T02:04:02.574Z,1023.00
2023-02-28T02:06:02.421Z,1022.89
2023-02-28T02:08:02.385Z,1022.89
2023-02-28T02:10:02.405Z,1022.89
2023-02-28T02:12:02.406Z,1022.89
2023-02-28T02:14:02.391Z,1022.89
2023-02-28T02:16:02.384Z,1022.89
2023-02-28T02:18:02.405Z,1022.89
2023-02-28T02:20:02.402Z,1022.89
2023-02-28T02:22:02.436Z,1022.89
2023-02-28T02:24:02.388Z,1022.89
2023-02-28T02:26:02.387Z,1022.89
2023-02-28T02:28:02.417Z,1022.89
2023-02-28T02:30:02.523Z,1022.89
2023-02-28T02:32:02.471Z,1022.89
2023-02-28T02:34:02.425Z,1022.82
2023-02-28T02:36:02.487Z,1022.79
2023-02-28T02:38:02.402Z,1022.79
2023-02-28T02:40:02.379Z,1022.79
2023-02-28T02:42:02.470Z,1022.79
2023-02-28T02:44:32.429Z,1022.79
2023-02-28T02:46:32.513Z,1022.79
2023-02-28T02:48:32.400Z,1022.79
2023-02-28T02:50:32.424Z,1022.79
2023-02-28T02:52:32.396Z,1022.79
2023-02-28T02:54:32.415Z,1022.79
2023-02-28T02:56:32.414Z,1022.79
2023-02-28T02:58:32.405Z,1022.79
2023-02-28T03:00:32.636Z,1022.75
2023-02-28T03:02:32.417Z,1022.75
2023-02-28T03:04:32.491Z,1022.75
2023-02-28T03:06:32.397Z,1022.75
2023-02-28T03:08:32.420Z,1022.75
2023-02-28T03:10:32.508Z,1022.74
2023-02-28T03:12:34.060Z,1022.74
2023-02-28T03:14:32.572Z,1022.74
2023-02-28T03:16:32.467Z,1022.74
2023-02-28T03:18:32.506Z,1022.74
2023-02-28T03:20:32.562Z,1022.74
2023-02-28T03:22:32.504Z,1022.74
2023-02-28T03:24:32.445Z,1022.76
2023-02-28T03:26:32.498Z,1022.76
2023-02-28T03:28:32.534Z,1022.76
2023-02-28T03:30:32.504Z,1022.76
2023-02-28T03:32:32.500Z,1022.76
2023-02-28T03:34:32.485Z,1022.76
2023-02-28T03:36:32.496Z,1022.76
2023-02-28T03:38:32.432Z,1022.76
2023-02-28T03:40:34.330Z,1022.76
2023-02-28T03:44:40.830Z,1022.76
2023-02-28T03:46:40.843Z,1022.76
2023-02-28T03:48:40.848Z,1022.76
2023-02-28T03:50:40.877Z,1022.76
2023-02-28T03:52:40.841Z,1022.76
2023-02-28T03:54:41.006Z,1022.76
2023-02-28T03:56:40.847Z,1022.76
2023-02-28T03:58:40.842Z,1022.76
2023-02-28T04:00:40.988Z,1022.76
2023-02-28T04:02:40.848Z,1022.76
2023-02-28T04:04:40.979Z,1022.76
2023-02-28T04:06:40.985Z,1022.76
2023-02-28T04:08:40.834Z,1022.76
2023-02-28T04:10:40.866Z,1022.76
2023-02-28T04:12:40.972Z,1022.76
2023-02-28T04:14:40.860Z,1022.76
2023-02-28T04:16:40.993Z,1022.76
2023-02-28T04:18:40.906Z,1022.76
2023-02-28T04:20:40.987Z,1022.76
2023-02-28T04:22:40.846Z,1022.95
2023-02-28T04:24:41.026Z,1022.95
2023-02-28T04:26:40.879Z,1022.95
2023-02-28T04:28:40.870Z,1022.95
2023-02-28T04:30:40.856Z,1022.95
2023-02-28T04:32:40.919Z,1022.95
2023-02-28T04:34:40.867Z,1022.95
2023-02-28T04:36:40.875Z,1022.95
2023-02-28T04:38:40.942Z,1022.95
2023-02-28T04:40:40.906Z,1022.95
2023-02-28T04:42:40.879Z,1022.95
2023-02-28T04:44:40.871Z,1022.95
2023-02-28T04:46:41.913Z,1022.95
2023-02-28T04:48:40.862Z,1022.95
2023-02-28T04:50:40.856Z,1022.95
2023-02-28T04:52:40.879Z,1022.90
2023-02-28T04:54:41.043Z,1022.90
2023-02-28T04:57:11.052Z,1022.91
2023-02-28T04:59:10.961Z,1022.91
2023-02-28T05:01:10.899Z,1022.91
2023-02-28T05:03:10.991Z,1022.93
2023-02-28T05:05:10.895Z,1022.93
2023-02-28T05:07:10.847Z,1022.93
2023-02-28T05:09:10.907Z,1022.99
2023-02-28T05:11:10.874Z,1022.99
2023-02-28T05:13:10.886Z,1022.99
2023-02-28T05:15:11.074Z,1022.99
2023-02-28T05:17:10.893Z,1022.92
2023-02-28T05:19:10.968Z,1022.92
2023-02-28T05:21:10.929Z,1022.91
2023-02-28T05:23:10.966Z,1022.91
2023-02-28T05:25:10.878Z,1022.92
2023-02-28T05:27:10.892Z,1022.94
2023-02-28T05:29:10.907Z,1022.94
2023-02-28T05:31:10.979Z,1022.94
2023-02-28T05:33:10.922Z,1022.95
2023-02-28T05:35:10.947Z,1022.95
2023-02-28T05:37:11.114Z,1022.99
2023-02-28T05:39:10.984Z,1022.99
2023-02-28T05:41:11.006Z,1023.01
2023-02-28T05:43:10.888Z,1023.01
2023-02-28T05:45:10.926Z,1023.01
2023-02-28T05:47:10.925Z,1023.01
2023-02-28T05:49:10.954Z,1023.01
2023-02-28T05:51:10.984Z,1023.01
2023-02-28T05:53:11.119Z,1023.01
2023-02-28T05:55:11.011Z,1023.01
2023-02-28T05:57:19.039Z,1023.01
2023-02-28T05:59:11.043Z,1023.06
2023-02-28T06:01:10.939Z,1023.10
2023-02-28T06:03:11.077Z,1023.10
2023-02-28T06:05:10.916Z,1023.10
2023-02-28T06:07:10.945Z,1023.10
2023-02-28T06:09:10.996Z,1023.10
2023-02-28T06:11:10.894Z,1023.10
2023-02-28T06:13:10.898Z,1023.18
2023-02-28T06:15:10.890Z,1023.18
2023-02-28T06:17:10.971Z,1023.18
2023-02-28T06:19:11.054Z,1023.18
2023-02-28T06:21:10.941Z,1023.18
2023-02-28T06:23:10.993Z,1023.18
2023-02-28T06:25:10.921Z,1023.18
2023-02-28T06:27:10.920Z,1023.18
2023-02-28T06:29:10.923Z,1023.18
2023-02-28T06:31:11.007Z,1023.18
2023-02-28T06:33:11.037Z,1023.18
2023-02-28T06:35:10.943Z,1023.18
2023-02-28T06:37:11.009Z,1023.33
2023-02-28T06:39:10.938Z,1023.35
2023-02-28T06:41:11.029Z,1023.35
2023-02-28T06:43:40.920Z,1023.35
2023-02-28T06:45:40.930Z,1023.35
2023-02-28T06:47:40.965Z,1023.35
2023-02-28T06:49:41.056Z,1023.35
2023-02-28T06:51:41.023Z,1023.35
2023-02-28T06:53:44.028Z,1023.35
2023-02-28T06:55:40.947Z,1023.35
2023-02-28T06:57:40.933Z,1023.35
2023-02-28T06:59:40.939Z,1023.41
2023-02-28T07:01:41.022Z,1023.44
2023-02-28T07:03:41.019Z,1023.44
2023-02-28T07:05:41.084Z,1023.47
2023-02-28T07:07:40.916Z,1023.49
2023-02-28T07:09:40.937Z,1023.49
2023-02-28T07:11:41.008Z,1023.49
2023-02-28T07:13:41.023Z,1023.49
2023-02-28T07:15:43.913Z,1023.62
2023-02-28T07:17:40.999Z,1023.66
2023-02-28T07:19:41.066Z,1023.67
2023-02-28T07:21:40.939Z,1023.67
2023-02-28T07:23:41.048Z,1023.71
2023-02-28T07:25:40.940Z,1023.71
2023-02-28T07:27:42.272Z,1023.77
2023-02-28T07:29:40.939Z,1023.86
2023-02-28T07:31:40.968Z,1023.86
2023-02-28T07:33:41.015Z,1023.87
2023-02-28T07:35:41.067Z,1023.93
2023-02-28T07:37:41.032Z,1023.93
2023-02-28T07:39:41.056Z,1023.92
2023-02-28T07:41:41.058Z,1023.92
2023-02-28T07:43:40.942Z,1023.84
2023-02-28T07:45:40.963Z,1023.83
2023-02-28T07:47:40.947Z,1023.85
2023-02-28T07:49:40.953Z,1023.85
2023-02-28T07:51:41.073Z,1023.85
2023-02-28T07:53:40.963Z,1023.86
2023-02-28T07:55:40.952Z,1023.86
2023-02-28T07:57:40.981Z,1023.84
2023-02-28T07:59:40.992Z,1023.84
2023-02-28T08:01:41.029Z,1023.89
2023-02-28T08:03:41.011Z,1023.90
2023-02-28T08:05:41.036Z,1023.90
2023-02-28T08:07:41.050Z,1023.97
2023-02-28T08:09:40.976Z,1023.97
2023-02-28T08:11:40.981Z,1023.99
2023-02-28T08:13:41.098Z,1023.97
2023-02-28T08:15:40.955Z,1023.97
2023-02-28T08:17:41.005Z,1024.04
2023-02-28T08:19:40.945Z,1024.04
2023-02-28T08:21:41.047Z,1023.95
2023-02-28T08:23:40.964Z,1023.90
2023-02-28T08:25:40.970Z,1023.86
2023-02-28T08:27:40.986Z,1023.86
2023-02-28T08:29:40.962Z,1023.84
2023-02-28T08:31:41.061Z,1023.84
2023-02-28T08:34:11.023Z,1023.81
2023-02-28T08:36:11.035Z,1023.82
2023-02-28T08:38:10.964Z,1023.82
2023-02-28T08:40:10.984Z,1023.82
2023-02-28T08:42:11.092Z,1023.82
2023-02-28T08:44:11.000Z,1023.81
2023-02-28T08:46:11.025Z,1023.81
2023-02-28T08:48:10.999Z,1023.87
2023-02-28T08:50:10.995Z,1023.88
2023-02-28T08:52:10.989Z,1023.88
2023-02-28T08:54:10.966Z,1023.92
2023-02-28T08:56:11.008Z,1023.94
2023-02-28T08:58:10.989Z,1023.97
2023-02-28T09:00:11.017Z,1023.97
2023-02-28T09:02:11.055Z,1023.95
2023-02-28T09:04:12.733Z,1023.93
2023-02-28T09:06:11.013Z,1023.94
2023-02-28T09:08:11.092Z,1023.93
2023-02-28T09:10:11.030Z,1023.93
2023-02-28T09:12:11.000Z,1023.94
2023-02-28T09:14:11.025Z,1023.91
2023-02-28T09:16:11.136Z,1023.92
2023-02-28T09:18:10.992Z,1023.95
2023-02-28T09:20:12.061Z,1023.95
2023-02-28T09:22:11.060Z,1023.95
2023-02-28T09:24:11.015Z,1023.95
2023-02-28T09:26:11.096Z,1023.95
2023-02-28T09:28:11.044Z,1023.95
2023-02-28T09:30:11.007Z,1024.01
2023-02-28T09:32:11.086Z,1023.98
2023-02-28T09:34:11.106Z,1024.02
2023-02-28T09:36:11.050Z,1024.07
2023-02-28T09:38:10.997Z,1024.07
2023-02-28T09:40:11.120Z,1024.08
2023-02-28T09:42:12.012Z,1024.08
2023-02-28T09:44:11.018Z,1024.09
2023-02-28T09:46:11.079Z,1024.09
2023-02-28T09:48:11.073Z,1024.09
2023-02-28T09:50:10.993Z,1024.10
2023-02-28T09:52:11.013Z,1024.10
2023-02-28T09:54:11.001Z,1024.05
2023-02-28T09:56:11.017Z,1024.05
2023-02-28T09:58:11.065Z,1024.11
2023-02-28T10:00:11.037Z,1024.16
2023-02-28T10:02:11.044Z,1024.14
2023-02-28T10:04:11.002Z,1024.14
2023-02-28T10:06:11.038Z,1024.14
2023-02-28T10:08:11.125Z,1024.14
2023-02-28T10:10:11.115Z,1024.23
2023-02-28T10:12:11.078Z,1024.19
2023-02-28T10:14:11.085Z,1024.17
2023-02-28T10:16:11.041Z,1024.17
2023-02-28T10:18:12.165Z,1024.24
2023-02-28T10:20:11.134Z,1024.24
2023-02-28T10:22:41.014Z,1024.24
2023-02-28T10:24:41.093Z,1024.24
2023-02-28T10:26:41.015Z,1024.32
2023-02-28T10:28:41.132Z,1024.31
2023-02-28T10:30:41.164Z,1024.36
2023-02-28T10:32:41.022Z,1024.35
2023-02-28T10:34:41.163Z,1024.35
2023-02-28T10:36:41.041Z,1024.32
2023-02-28T10:38:41.069Z,1024.28
2023-02-28T10:40:41.101Z,1024.28
2023-02-28T10:42:41.030Z,1024.27
2023-02-28T10:44:41.044Z,1024.27
2023-02-28T10:46:41.100Z,1024.26
2023-02-28T10:48:41.172Z,1024.26
2023-02-28T10:50:41.101Z,1024.29
2023-02-28T10:52:41.178Z,1024.26
2023-02-28T10:54:41.145Z,1024.26
2023-02-28T10:56:41.059Z,1024.26
2023-02-28T10:58:41.241Z,1024.27
2023-02-28T11:00:41.175Z,1024.26
2023-02-28T11:02:41.075Z,1024.26
2023-02-28T11:06:40.297Z,1024.25
2023-02-28T11:08:40.250Z,1024.27
2023-02-28T11:10:40.263Z,1024.22
2023-02-28T11:12:47.343Z,1024.22
2023-02-28T11:14:40.269Z,1024.22
2023-02-28T11:16:40.293Z,1024.19
2023-02-28T11:18:40.265Z,1024.16
2023-02-28T11:20:40.312Z,1024.11
2023-02-28T11:22:40.296Z,1024.11
2023-02-28T11:24:40.293Z,1024.08
2023-02-28T11:26:41.367Z,1024.19
2023-02-28T11:28:40.357Z,1024.19
2023-02-28T11:30:40.394Z,1024.19
2023-02-28T11:32:40.363Z,1024.07
2023-02-28T11:34:40.283Z,1024.04
2023-02-28T11:36:40.293Z,1024.08
2023-02-28T11:38:40.361Z,1024.08
2023-02-28T11:40:40.306Z,1024.08
2023-02-28T11:42:40.306Z,1024.10
2023-02-28T11:44:40.274Z,1024.11
2023-02-28T11:46:40.437Z,1024.07
2023-02-28T11:48:40.286Z,1024.07
2023-02-28T11:50:40.321Z,1024.07
2023-02-28T11:52:40.294Z,1024.11
2023-02-28T11:54:40.290Z,1024.11
2023-02-28T11:56:40.343Z,1024.07
2023-02-28T11:58:40.303Z,1024.07
2023-02-28T12:00:40.310Z,1024.07
2023-02-28T12:02:40.426Z,1024.04
2023-02-28T12:04:40.441Z,1024.03
2023-02-28T12:06:40.311Z,1024.06
2023-02-28T12:09:10.334Z,1024.06
2023-02-28T12:11:10.328Z,1024.13
2023-02-28T12:13:10.416Z,1024.13
2023-02-28T12:15:10.332Z,1024.12
2023-02-28T12:17:10.411Z,1024.12
2023-02-28T12:19:10.338Z,1024.12
2023-02-28T12:21:10.436Z,1024.15
2023-02-28T12:23:10.329Z,1024.15
2023-02-28T12:25:10.336Z,1024.14
2023-02-28T12:27:10.367Z,1024.09
2023-02-28T12:29:10.396Z,1024.08
2023-02-28T12:31:10.370Z,1024.08
2023-02-28T12:33:10.351Z,1024.04
2023-02-28T12:35:10.442Z,1024.00
2023-02-28T12:37:10.336Z,1024.00
2023-02-28T12:39:10.442Z,1024.01
2023-02-28T12:41:10.388Z,1024.01
2023-02-28T12:43:10.395Z,1024.05
2023-02-28T12:45:11.397Z,1023.99
2023-02-28T12:47:10.463Z,1023.99
2023-02-28T12:49:10.359Z,1023.99
2023-02-28T12:51:10.458Z,1023.99
2023-02-28T12:53:10.371Z,1023.86
2023-02-28T12:55:10.342Z,1023.88
2023-02-28T12:57:10.471Z,1023.86
2023-02-28T12:59:10.593Z,1023.86
2023-02-28T13:01:10.482Z,1023.87
2023-02-28T13:03:10.463Z,1023.86
2023-02-28T13:05:10.333Z,1023.84
2023-02-28T13:07:10.358Z,1023.85
2023-02-28T13:09:10.395Z,1023.85
2023-02-28T13:11:19.913Z,1023.82
2023-02-28T13:13:10.354Z,1023.84
2023-02-28T13:15:10.427Z,1023.84
2023-02-28T13:17:10.501Z,1023.79
2023-02-28T13:19:10.472Z,1023.79
2023-02-28T13:21:10.489Z,1023.73
2023-02-28T13:23:10.495Z,1023.71
2023-02-28T13:25:10.356Z,1023.71
2023-02-28T13:27:10.777Z,1023.71
2023-02-28T13:29:10.506Z,1023.71
2023-02-28T13:31:10.598Z,1023.71
2023-02-28T13:33:10.480Z,1023.66
2023-02-28T13:35:10.349Z,1023.67
2023-02-28T13:37:10.557Z,1023.67
2023-02-28T13:39:10.473Z,1023.69
2023-02-28T13:41:10.414Z,1023.68
2023-02-28T13:43:10.505Z,1023.74
2023-02-28T13:45:10.474Z,1023.74
2023-02-28T13:47:10.469Z,1023.74
2023-02-28T13:49:10.469Z,1023.74
2023-02-28T13:51:10.404Z,1023.70
2023-02-28T13:53:10.395Z,1023.68
2023-02-28T13:55:10.398Z,1023.71
2023-02-28T13:57:40.609Z,1023.71
2023-02-28T13:59:40.521Z,1023.71
2023-02-28T14:01:40.523Z,1023.70
2023-02-28T14:03:40.527Z,1023.72
2023-02-28T14:05:40.405Z,1023.72
2023-02-28T14:07:40.583Z,1023.72
2023-02-28T14:09:40.454Z,1023.68
2023-02-28T14:11:40.475Z,1023.68
2023-02-28T14:13:40.413Z,1023.62
2023-02-28T14:15:40.552Z,1023.62
2023-02-28T14:17:40.529Z,1023.64
2023-02-28T14:19:40.575Z,1023.67
2023-02-28T14:21:40.479Z,1023.70
2023-02-28T14:23:40.374Z,1023.73
2023-02-28T14:25:40.722Z,1023.73
2023-02-28T14:27:40.484Z,1023.70
2023-02-28T14:29:40.495Z,1023.75
2023-02-28T14:31:40.781Z,1023.78
2023-02-28T14:33:40.496Z,1023.78
2023-02-28T14:35:40.576Z,1023.79
2023-02-28T14:37:40.405Z,1023.80
2023-02-28T14:39:40.432Z,1023.87
2023-02-28T14:41:40.474Z,1023.84
2023-02-28T14:43:40.517Z,1023.84
2023-02-28T14:45:40.522Z,1023.83
2023-02-28T14:47:40.695Z,1023.80
2023-02-28T14:49:40.448Z,1023.80
2023-02-28T14:51:40.540Z,1023.80
2023-02-28T14:53:40.445Z,1023.80
2023-02-28T14:55:40.447Z,1023.80
2023-02-28T14:57:40.475Z,1023.87
2023-02-28T14:59:40.498Z,1023.88
2023-02-28T15:01:40.752Z,1023.88
2023-02-28T15:03:40.544Z,1023.89
2023-02-28T15:05:40.395Z,1023.89
2023-02-28T15:07:44.010Z,1023.88
2023-02-28T15:09:41.450Z,1023.93
2023-02-28T15:11:40.456Z,1023.93
2023-02-28T15:13:40.420Z,1023.90
2023-02-28T15:15:46.410Z,1023.92
2023-02-28T15:17:40.543Z,1023.94
2023-02-28T15:19:40.481Z,1023.95
2023-02-28T15:21:40.469Z,1023.95
2023-02-28T15:23:40.420Z,1023.98
2023-02-28T15:25:40.409Z,1023.99
2023-02-28T15:27:40.661Z,1024.01
2023-02-28T15:29:40.429Z,1024.01
2023-02-28T15:31:55.893Z,1024.02
2023-02-28T15:33:40.424Z,1024.02
2023-02-28T15:35:40.568Z,1024.08
2023-02-28T15:37:40.572Z,1024.09
2023-02-28T15:39:40.455Z,1024.09
2023-02-28T15:41:40.461Z,1024.12
2023-02-28T15:43:40.507Z,1024.10
2023-02-28T15:46:10.602Z,1024.08
2023-02-28T15:48:14.126Z,1024.08
2023-02-28T15:50:10.465Z,1024.08
2023-02-28T15:52:10.660Z,1024.09
2023-02-28T15:54:10.553Z,1024.09
2023-02-28T15:56:10.738Z,1024.05
2023-02-28T15:58:10.500Z,1024.06
2023-02-28T16:00:10.530Z,1024.06
2023-02-28T16:02:10.696Z,1024.06
2023-02-28T16:04:10.536Z,1024.07
2023-02-28T16:06:10.434Z,1024.08
2023-02-28T16:08:10.472Z,1024.07
2023-02-28T16:10:10.487Z,1024.09
2023-02-28T16:12:10.493Z,1024.09
2023-02-28T16:14:10.657Z,1024.09
2023-02-28T16:16:10.543Z,1024.13
2023-02-28T16:18:10.659Z,1024.12
2023-02-28T16:20:10.710Z,1024.12
2023-02-28T16:22:10.568Z,1024.12
2023-02-28T16:24:10.470Z,1024.12
2023-02-28T16:26:10.593Z,1024.17
2023-02-28T16:28:10.510Z,1024.19
2023-02-28T16:30:10.569Z,1024.19
2023-02-28T16:32:10.661Z,1024.21
2023-02-28T16:34:10.556Z,1024.21
2023-02-28T16:36:10.486Z,1024.27
2023-02-28T16:38:10.578Z,1024.27
2023-02-28T16:40:10.515Z,1024.27
2023-02-28T16:42:10.533Z,1024.31
2023-02-28T16:44:10.534Z,1024.32
2023-02-28T16:46:10.551Z,1024.40
2023-02-28T16:48:10.920Z,1024.39
2023-02-28T16:50:10.573Z,1024.39
2023-02-28T16:52:10.525Z,1024.43
2023-02-28T16:54:10.535Z,1024.43
2023-02-28T16:56:10.634Z,1024.40
2023-02-28T16:58:10.545Z,1024.41
2023-02-28T17:00:10.548Z,1024.41
2023-02-28T17:02:10.744Z,1024.42
2023-02-28T17:04:10.572Z,1024.46
2023-02-28T17:06:10.452Z,1024.51
2023-02-28T17:08:10.495Z,1024.51
2023-02-28T17:10:10.584Z,1024.52
2023-02-28T17:12:10.624Z,1024.52
2023-02-28T17:14:10.559Z,1024.55
2023-02-28T17:16:10.658Z,1024.58
2023-02-28T17:18:10.597Z,1024.58
2023-02-28T17:20:10.896Z,1024.61
2023-02-28T17:22:10.631Z,1024.61
2023-02-28T17:24:12.562Z,1024.67
2023-02-28T17:26:10.514Z,1024.67
2023-02-28T17:28:10.831Z,1024.67
2023-02-28T17:30:40.612Z,1024.69
2023-02-28T17:32:40.677Z,1024.70
2023-02-28T17:34:40.594Z,1024.70
2023-02-28T17:36:40.604Z,1024.70
2023-02-28T17:40:40.536Z,1024.82
2023-02-28T17:42:40.636Z,1024.80
2023-02-28T17:44:40.686Z,1024.83
2023-02-28T17:46:40.604Z,1024.83
2023-02-28T17:48:40.612Z,1024.83
2023-02-28T17:50:40.837Z,1024.85
2023-02-28T17:52:40.521Z,1024.91
2023-02-28T17:54:40.718Z,1024.96
2023-02-28T17:56:40.542Z,1024.96
2023-02-28T17:58:40.601Z,1024.90
2023-02-28T18:00:40.599Z,1024.92
2023-02-28T18:02:40.677Z,1024.91
2023-02-28T18:04:40.618Z,1024.91
2023-02-28T18:06:40.621Z,1024.91
2023-02-28T18:08:40.612Z,1024.93
2023-02-28T18:10:40.582Z,1024.88
2023-02-28T18:14:40.629Z,1024.90
2023-02-28T18:16:40.689Z,1024.90
2023-02-28T18:18:40.706Z,1024.86
2023-02-28T18:24:48.747Z,1024.84
2023-02-28T18:26:48.782Z,1024.87
2023-02-28T18:28:48.791Z,1024.85
2023-02-28T18:30:48.674Z,1024.83
2023-02-28T18:32:48.823Z,1024.83
2023-02-28T18:34:48.721Z,1024.83
2023-02-28T18:36:48.736Z,1024.81
2023-02-28T18:38:48.745Z,1024.83
2023-02-28T18:40:48.766Z,1024.84
2023-02-28T18:42:48.770Z,1024.84
2023-02-28T18:44:48.893Z,1024.83
2023-02-28T18:46:48.821Z,1024.86
2023-02-28T18:48:48.692Z,1024.82
2023-02-28T18:50:48.736Z,1024.85
2023-02-28T18:52:48.750Z,1024.85
2023-02-28T18:54:48.742Z,1024.80
2023-02-28T18:56:48.778Z,1024.80
2023-02-28T18:58:48.779Z,1024.80
2023-02-28T19:00:48.734Z,1024.80
2023-02-28T19:02:48.700Z,1024.80
2023-02-28T19:04:48.721Z,1024.69
2023-02-28T19:06:49.546Z,1024.69
2023-02-28T19:08:48.732Z,1024.69
2023-02-28T19:10:48.791Z,1024.69
2023-02-28T19:12:48.772Z,1024.71
2023-02-28T19:14:48.782Z,1024.75
2023-02-28T19:16:48.727Z,1024.74
2023-02-28T19:18:48.715Z,1024.76
2023-02-28T19:20:48.760Z,1024.76
2023-02-28T19:22:48.702Z,1024.76
2023-02-28T19:24:48.792Z,1024.73
2023-02-28T19:26:48.828Z,1024.76
2023-02-28T19:28:48.782Z,1024.75
2023-02-28T19:30:48.825Z,1024.75
2023-02-28T19:32:48.769Z,1024.73
2023-02-28T19:34:48.725Z,1024.73
2023-02-28T19:36:48.800Z,1024.73
2023-02-28T19:38:48.795Z,1024.73
2023-02-28T19:40:48.803Z,1024.69
2023-02-28T19:42:48.811Z,1024.71
2023-02-28T19:45:18.813Z,1024.73
2023-02-28T19:47:18.746Z,1024.73
2023-02-28T19:49:18.769Z,1024.72
2023-02-28T19:51:18.785Z,1024.72
2023-02-28T19:53:18.796Z,1024.72
2023-02-28T19:55:18.775Z,1024.72
2023-02-28T19:57:18.836Z,1024.72
2023-02-28T19:59:21.644Z,1024.76
2023-02-28T20:01:18.889Z,1024.76
2023-02-28T20:03:18.778Z,1024.73
2023-02-28T20:05:18.765Z,1024.71
2023-02-28T20:07:18.797Z,1024.69
2023-02-28T20:09:18.814Z,1024.67
2023-02-28T20:11:18.820Z,1024.67
2023-02-28T20:13:20.700Z,1024.68
2023-02-28T20:15:18.829Z,1024.68
2023-02-28T20:17:18.858Z,1024.68
2023-02-28T20:19:18.767Z,1024.64
2023-02-28T20:21:18.789Z,1024.64
2023-02-28T20:23:18.728Z,1024.64
2023-02-28T20:25:18.811Z,1024.62
2023-02-28T20:27:18.820Z,1024.62
2023-02-28T20:29:18.872Z,1024.62
2023-02-28T20:31:18.852Z,1024.62
2023-02-28T20:33:18.876Z,1024.60
2023-02-28T20:35:18.747Z,1024.59
2023-02-28T20:37:18.789Z,1024.64
2023-02-28T20:39:18.860Z,1024.64
2023-02-28T20:41:18.813Z,1024.60
2023-02-28T20:43:18.732Z,1024.61
2023-02-28T20:45:18.743Z,1024.63
2023-02-28T20:47:18.722Z,1024.59
2023-02-28T20:49:18.790Z,1024.59
2023-02-28T20:51:18.790Z,1024.59
2023-02-28T20:53:18.821Z,1024.62
2023-02-28T20:55:18.850Z,1024.64
2023-02-28T20:57:18.895Z,1024.64
2023-02-28T20:59:18.766Z,1024.64
2023-02-28T21:01:18.918Z,1024.71
2023-02-28T21:03:18.787Z,1024.76
2023-02-28T21:05:18.804Z,1024.76
2023-02-28T21:07:18.990Z,1024.76
2023-02-28T21:09:18.827Z,1024.73
2023-02-28T21:11:18.842Z,1024.69
2023-02-28T21:13:18.872Z,1024.69
2023-02-28T21:15:18.786Z,1024.69
2023-02-28T21:17:18.768Z,1024.69
2023-02-28T21:19:18.788Z,1024.69
2023-02-28T21:21:18.827Z,1024.69
2023-02-28T21:23:18.747Z,1024.69
2023-02-28T21:25:19.079Z,1024.72
2023-02-28T21:27:48.859Z,1024.72
2023-02-28T21:29:48.873Z,1024.72
2023-02-28T21:31:48.851Z,1024.75
2023-02-28T21:33:48.802Z,1024.73
2023-02-28T21:35:48.848Z,1024.73
2023-02-28T21:37:48.823Z,1024.64
2023-02-28T21:39:48.857Z,1024.64
2023-02-28T21:41:48.893Z,1024.64
2023-02-28T21:43:48.873Z,1024.64
2023-02-28T21:45:48.794Z,1024.64
2023-02-28T21:47:48.779Z,1024.59
2023-02-28T21:49:48.832Z,1024.56
2023-02-28T21:51:48.894Z,1024.54
2023-02-28T21:53:48.846Z,1024.52
2023-02-28T21:55:48.875Z,1024.52
2023-02-28T21:57:48.885Z,1024.50
2023-02-28T21:59:48.891Z,1024.48
2023-02-28T22:01:48.825Z,1024.53
2023-02-28T22:03:48.808Z,1024.53
2023-02-28T22:05:48.820Z,1024.53
2023-02-28T22:07:48.870Z,1024.53
2023-02-28T22:09:48.854Z,1024.53
2023-02-28T22:11:48.909Z,1024.53
2023-02-28T22:13:48.876Z,1024.53
2023-02-28T22:15:48.939Z,1024.53
2023-02-28T22:17:48.815Z,1024.53
2023-02-28T22:19:48.823Z,1024.53
2023-02-28T22:21:48.882Z,1024.63
2023-02-28T22:23:48.804Z,1024.63
2023-02-28T22:25:48.869Z,1024.63
2023-02-28T22:27:48.890Z,1024.63
2023-02-28T22:29:48.891Z,1024.65
2023-02-28T22:31:48.936Z,1024.64
2023-02-28T22:33:48.831Z,1024.64
2023-02-28T22:35:48.802Z,1024.62
2023-02-28T22:37:48.877Z,1024.62
2023-02-28T22:39:48.861Z,1024.62
2023-02-28T22:41:48.861Z,1024.62
2023-02-28T22:43:48.824Z,1024.67
2023-02-28T22:45:48.902Z,1024.68
2023-02-28T22:47:48.830Z,1024.68
2023-02-28T22:49:48.802Z,1024.63
2023-02-28T22:51:48.826Z,1024.63
2023-02-28T22:53:48.882Z,1024.63
2023-02-28T22:55:48.908Z,1024.63
2023-02-28T22:57:48.916Z,1024.63
2023-02-28T22:59:48.923Z,1024.63
2023-02-28T23:01:48.858Z,1024.63
2023-02-28T23:03:48.898Z,1024.63
2023-02-28T23:05:48.874Z,1024.61
2023-02-28T23:07:48.890Z,1024.61
2023-02-28T23:10:18.894Z,1024.53
2023-02-28T23:12:18.892Z,1024.54
2023-02-28T23:14:18.844Z,1024.54
2023-02-28T23:16:18.856Z,1024.54
2023-02-28T23:18:18.851Z,1024.52
2023-02-28T23:20:18.866Z,1024.53
2023-02-28T23:22:18.795Z,1024.48
2023-02-28T23:24:18.883Z,1024.48
2023-02-28T23:26:18.893Z,1024.48
2023-02-28T23:28:18.916Z,1024.49
2023-02-28T23:30:18.818Z,1024.51
2023-02-28T23:32:18.930Z,1024.46
2023-02-28T23:34:18.807Z,1024.46
2023-02-28T23:36:18.876Z,1024.47
2023-02-28T23:38:18.874Z,1024.47
2023-02-28T23:40:18.904Z,1024.47
2023-02-28T23:42:18.896Z,1024.47
2023-02-28T23:44:18.831Z,1024.46
2023-02-28T23:46:18.855Z,1024.43
2023-02-28T23:48:18.811Z,1024.41
2023-02-28T23:50:18.888Z,1024.37
2023-02-28T23:52:18.806Z,1024.37
2023-02-28T23:54:18.819Z,1024.41
2023-02-28T23:56:18.834Z,1024.41
2023-02-28T23:58:18.866Z,1024.41
